sensor_id;sensor_type;location;lat;lon;timestamp;temperature;humidity
22795;DHT22;11564;50.920;11.612;2023-05-07T00:01:15;11.30;99.90
22795;DHT22;11564;50.920;11.612;2023-05-07T00:03:41;11.30;99.90
22795;DHT22;11564;50.920;11.612;2023-05-07T00:06:07;11.30;99.90
22795;DHT22;11564;50.920;11.612;2023-05-07T00:08:32;11.30;99.90
22795;DHT22;11564;50.920;11.612;2023-05-07T00:10:58;11.30;99.90
22795;DHT22;11564;50.920;11.612;2023-05-07T00:13:24;11.30;99.90
22795;DHT22;11564;50.920;11.612;2023-05-07T00:15:49;11.20;99.90
22795;DHT22;11564;50.920;11.612;2023-05-07T00:18:15;11.20;99.90
22795;DHT22;11564;50.920;11.612;2023-05-07T00:20:41;11.20;99.90
22795;DHT22;11564;50.920;11.612;2023-05-07T00:23:06;11.20;99.90
22795;DHT22;11564;50.920;11.612;2023-05-07T00:25:32;11.20;99.90
22795;DHT22;11564;50.920;11.612;2023-05-07T00:27:58;11.20;99.90
22795;DHT22;11564;50.920;11.612;2023-05-07T00:30:29;11.20;99.90
22795;DHT22;11564;50.920;11.612;2023-05-07T00:32:54;11.20;99.90
22795;DHT22;11564;50.920;11.612;2023-05-07T00:35:20;11.20;99.90
22795;DHT22;11564;50.920;11.612;2023-05-07T00:37:46;11.20;99.90
22795;DHT22;11564;50.920;11.612;2023-05-07T00:40:11;11.20;99.90
22795;DHT22;11564;50.920;11.612;2023-05-07T00:42:38;11.20;99.90
22795;DHT22;11564;50.920;11.612;2023-05-07T00:45:03;11.20;99.90
22795;DHT22;11564;50.920;11.612;2023-05-07T00:47:29;11.20;99.90
22795;DHT22;11564;50.920;11.612;2023-05-07T00:49:56;11.20;99.90
22795;DHT22;11564;50.920;11.612;2023-05-07T00:52:25;11.20;99.90
22795;DHT22;11564;50.920;11.612;2023-05-07T00:54:51;11.20;99.90
22795;DHT22;11564;50.920;11.612;2023-05-07T00:57:17;11.20;99.90
22795;DHT22;11564;50.920;11.612;2023-05-07T00:59:43;11.20;99.90
22795;DHT22;11564;50.920;11.612;2023-05-07T01:02:09;11.20;99.90
22795;DHT22;11564;50.920;11.612;2023-05-07T01:04:35;11.10;99.90
22795;DHT22;11564;50.920;11.612;2023-05-07T01:07:02;11.20;99.90
22795;DHT22;11564;50.920;11.612;2023-05-07T01:09:28;11.20;99.90
22795;DHT22;11564;50.920;11.612;2023-05-07T01:11:55;11.10;99.90
22795;DHT22;11564;50.920;11.612;2023-05-07T01:14:22;11.20;99.90
22795;DHT22;11564;50.920;11.612;2023-05-07T01:16:48;11.10;99.90
22795;DHT22;11564;50.920;11.612;2023-05-07T01:19:18;11.20;99.90
22795;DHT22;11564;50.920;11.612;2023-05-07T01:21:48;11.20;99.90
22795;DHT22;11564;50.920;11.612;2023-05-07T01:24:14;11.20;99.90
22795;DHT22;11564;50.920;11.612;2023-05-07T01:26:42;11.10;99.90
22795;DHT22;11564;50.920;11.612;2023-05-07T01:29:08;11.10;99.90
22795;DHT22;11564;50.920;11.612;2023-05-07T01:31:34;11.00;99.90
22795;DHT22;11564;50.920;11.612;2023-05-07T01:34:01;11.10;99.90
22795;DHT22;11564;50.920;11.612;2023-05-07T01:36:30;11.10;99.90
22795;DHT22;11564;50.920;11.612;2023-05-07T01:38:57;11.10;99.90
22795;DHT22;11564;50.920;11.612;2023-05-07T01:41:24;11.10;99.90
22795;DHT22;11564;50.920;11.612;2023-05-07T01:43:50;11.20;99.90
22795;DHT22;11564;50.920;11.612;2023-05-07T01:46:17;11.10;99.90
22795;DHT22;11564;50.920;11.612;2023-05-07T01:48:45;11.10;99.90
22795;DHT22;11564;50.920;11.612;2023-05-07T01:51:11;11.10;99.90
22795;DHT22;11564;50.920;11.612;2023-05-07T01:53:38;11.10;99.90
22795;DHT22;11564;50.920;11.612;2023-05-07T01:56:04;11.10;99.90
22795;DHT22;11564;50.920;11.612;2023-05-07T01:58:30;11.20;99.90
22795;DHT22;11564;50.920;11.612;2023-05-07T02:00:56;11.10;99.90
22795;DHT22;11564;50.920;11.612;2023-05-07T02:03:21;11.20;99.90
22795;DHT22;11564;50.920;11.612;2023-05-07T02:05:47;11.10;99.90
22795;DHT22;11564;50.920;11.612;2023-05-07T02:08:12;11.00;99.90
22795;DHT22;11564;50.920;11.612;2023-05-07T02:10:38;11.00;99.90
22795;DHT22;11564;50.920;11.612;2023-05-07T02:13:03;11.00;99.90
22795;DHT22;11564;50.920;11.612;2023-05-07T02:15:29;11.00;99.90
22795;DHT22;11564;50.920;11.612;2023-05-07T02:18:05;11.00;99.90
22795;DHT22;11564;50.920;11.612;2023-05-07T02:20:32;11.10;99.90
22795;DHT22;11564;50.920;11.612;2023-05-07T02:22:58;11.00;99.90
22795;DHT22;11564;50.920;11.612;2023-05-07T02:25:23;11.10;99.90
22795;DHT22;11564;50.920;11.612;2023-05-07T02:27:49;11.10;99.90
22795;DHT22;11564;50.920;11.612;2023-05-07T02:30:15;11.00;99.90
22795;DHT22;11564;50.920;11.612;2023-05-07T02:32:41;11.00;99.90
22795;DHT22;11564;50.920;11.612;2023-05-07T02:35:06;11.00;99.90
22795;DHT22;11564;50.920;11.612;2023-05-07T02:37:32;11.00;99.90
22795;DHT22;11564;50.920;11.612;2023-05-07T02:39:58;11.00;99.90
22795;DHT22;11564;50.920;11.612;2023-05-07T02:42:24;11.00;99.90
22795;DHT22;11564;50.920;11.612;2023-05-07T02:44:49;11.00;99.90
22795;DHT22;11564;50.920;11.612;2023-05-07T02:47:15;10.90;99.90
22795;DHT22;11564;50.920;11.612;2023-05-07T02:49:41;10.90;99.90
22795;DHT22;11564;50.920;11.612;2023-05-07T02:52:07;10.90;99.90
22795;DHT22;11564;50.920;11.612;2023-05-07T02:54:33;10.90;99.90
22795;DHT22;11564;50.920;11.612;2023-05-07T02:56:58;10.90;99.90
22795;DHT22;11564;50.920;11.612;2023-05-07T02:59:26;10.90;99.90
22795;DHT22;11564;50.920;11.612;2023-05-07T03:01:51;10.80;99.90
22795;DHT22;11564;50.920;11.612;2023-05-07T03:04:17;10.90;99.90
22795;DHT22;11564;50.920;11.612;2023-05-07T03:06:43;10.90;99.90
22795;DHT22;11564;50.920;11.612;2023-05-07T03:09:08;10.80;99.90
22795;DHT22;11564;50.920;11.612;2023-05-07T03:11:34;10.80;99.90
22795;DHT22;11564;50.920;11.612;2023-05-07T03:14:01;10.80;99.90
22795;DHT22;11564;50.920;11.612;2023-05-07T03:16:27;10.70;99.90
22795;DHT22;11564;50.920;11.612;2023-05-07T03:18:52;10.70;99.90
22795;DHT22;11564;50.920;11.612;2023-05-07T03:21:18;10.70;99.90
22795;DHT22;11564;50.920;11.612;2023-05-07T03:23:44;10.70;99.90
22795;DHT22;11564;50.920;11.612;2023-05-07T03:26:09;10.70;99.90
22795;DHT22;11564;50.920;11.612;2023-05-07T03:28:35;10.70;99.90
22795;DHT22;11564;50.920;11.612;2023-05-07T03:31:00;10.70;99.90
22795;DHT22;11564;50.920;11.612;2023-05-07T03:33:26;10.70;99.90
22795;DHT22;11564;50.920;11.612;2023-05-07T03:35:52;10.70;99.90
22795;DHT22;11564;50.920;11.612;2023-05-07T03:38:18;10.70;99.90
22795;DHT22;11564;50.920;11.612;2023-05-07T03:40:44;10.70;99.90
22795;DHT22;11564;50.920;11.612;2023-05-07T03:43:10;10.70;99.90
22795;DHT22;11564;50.920;11.612;2023-05-07T03:45:35;10.70;99.90
22795;DHT22;11564;50.920;11.612;2023-05-07T03:48:01;10.70;99.90
22795;DHT22;11564;50.920;11.612;2023-05-07T03:50:27;10.70;99.90
22795;DHT22;11564;50.920;11.612;2023-05-07T03:52:52;10.70;99.90
22795;DHT22;11564;50.920;11.612;2023-05-07T03:55:18;10.70;99.90
22795;DHT22;11564;50.920;11.612;2023-05-07T03:57:43;10.70;99.90
22795;DHT22;11564;50.920;11.612;2023-05-07T04:00:09;10.70;99.90
22795;DHT22;11564;50.920;11.612;2023-05-07T04:02:35;10.70;99.90
22795;DHT22;11564;50.920;11.612;2023-05-07T04:05:01;10.70;99.90
22795;DHT22;11564;50.920;11.612;2023-05-07T04:07:26;10.70;99.90
22795;DHT22;11564;50.920;11.612;2023-05-07T04:09:52;10.70;99.90
22795;DHT22;11564;50.920;11.612;2023-05-07T04:12:17;10.80;99.90
22795;DHT22;11564;50.920;11.612;2023-05-07T04:14:43;10.80;99.90
22795;DHT22;11564;50.920;11.612;2023-05-07T04:17:09;10.80;99.90
22795;DHT22;11564;50.920;11.612;2023-05-07T04:19:36;10.80;99.90
22795;DHT22;11564;50.920;11.612;2023-05-07T04:22:01;10.80;99.90
22795;DHT22;11564;50.920;11.612;2023-05-07T04:24:27;10.70;99.90
22795;DHT22;11564;50.920;11.612;2023-05-07T04:26:53;10.70;99.90
22795;DHT22;11564;50.920;11.612;2023-05-07T04:29:18;10.80;99.90
22795;DHT22;11564;50.920;11.612;2023-05-07T04:31:44;10.80;99.90
22795;DHT22;11564;50.920;11.612;2023-05-07T04:34:10;10.80;99.90
22795;DHT22;11564;50.920;11.612;2023-05-07T04:36:38;10.80;99.90
22795;DHT22;11564;50.920;11.612;2023-05-07T04:39:04;10.80;99.90
22795;DHT22;11564;50.920;11.612;2023-05-07T04:41:30;10.80;99.90
22795;DHT22;11564;50.920;11.612;2023-05-07T04:43:56;10.70;99.90
22795;DHT22;11564;50.920;11.612;2023-05-07T04:46:22;10.80;99.90
22795;DHT22;11564;50.920;11.612;2023-05-07T04:48:49;10.90;99.90
22795;DHT22;11564;50.920;11.612;2023-05-07T04:51:15;10.90;99.90
22795;DHT22;11564;50.920;11.612;2023-05-07T04:53:41;10.80;99.90
22795;DHT22;11564;50.920;11.612;2023-05-07T04:56:09;10.80;99.90
22795;DHT22;11564;50.920;11.612;2023-05-07T04:58:35;10.80;99.90
22795;DHT22;11564;50.920;11.612;2023-05-07T05:01:00;10.80;99.90
22795;DHT22;11564;50.920;11.612;2023-05-07T05:03:26;10.80;99.90
22795;DHT22;11564;50.920;11.612;2023-05-07T05:05:52;10.70;99.90
22795;DHT22;11564;50.920;11.612;2023-05-07T05:08:18;10.70;99.90
22795;DHT22;11564;50.920;11.612;2023-05-07T05:10:44;10.70;99.90
22795;DHT22;11564;50.920;11.612;2023-05-07T05:13:10;10.70;99.90
22795;DHT22;11564;50.920;11.612;2023-05-07T05:15:38;10.70;99.90
22795;DHT22;11564;50.920;11.612;2023-05-07T05:18:04;10.70;99.90
22795;DHT22;11564;50.920;11.612;2023-05-07T05:20:30;10.80;99.90
22795;DHT22;11564;50.920;11.612;2023-05-07T05:22:55;10.90;99.90
22795;DHT22;11564;50.920;11.612;2023-05-07T05:25:21;10.80;99.90
22795;DHT22;11564;50.920;11.612;2023-05-07T05:27:48;10.80;99.90
22795;DHT22;11564;50.920;11.612;2023-05-07T05:30:13;10.90;99.90
22795;DHT22;11564;50.920;11.612;2023-05-07T05:32:39;10.90;99.90
22795;DHT22;11564;50.920;11.612;2023-05-07T05:35:05;11.00;99.90
22795;DHT22;11564;50.920;11.612;2023-05-07T05:37:31;10.90;99.90
22795;DHT22;11564;50.920;11.612;2023-05-07T05:39:57;10.90;99.90
22795;DHT22;11564;50.920;11.612;2023-05-07T05:42:22;11.00;99.90
22795;DHT22;11564;50.920;11.612;2023-05-07T05:44:48;11.00;99.90
22795;DHT22;11564;50.920;11.612;2023-05-07T05:47:14;11.10;99.90
22795;DHT22;11564;50.920;11.612;2023-05-07T05:49:40;11.10;99.90
22795;DHT22;11564;50.920;11.612;2023-05-07T05:52:05;11.00;99.90
22795;DHT22;11564;50.920;11.612;2023-05-07T05:54:31;11.10;99.90
22795;DHT22;11564;50.920;11.612;2023-05-07T05:56:57;11.20;99.90
22795;DHT22;11564;50.920;11.612;2023-05-07T05:59:23;11.20;99.90
22795;DHT22;11564;50.920;11.612;2023-05-07T06:01:48;11.30;99.90
22795;DHT22;11564;50.920;11.612;2023-05-07T06:04:14;11.40;99.90
22795;DHT22;11564;50.920;11.612;2023-05-07T06:06:39;11.40;99.90
22795;DHT22;11564;50.920;11.612;2023-05-07T06:09:05;11.40;99.90
22795;DHT22;11564;50.920;11.612;2023-05-07T06:11:31;11.40;99.90
22795;DHT22;11564;50.920;11.612;2023-05-07T06:13:57;11.30;99.90
22795;DHT22;11564;50.920;11.612;2023-05-07T06:16:24;11.30;99.90
22795;DHT22;11564;50.920;11.612;2023-05-07T06:18:50;11.40;99.90
22795;DHT22;11564;50.920;11.612;2023-05-07T06:21:16;11.40;99.90
22795;DHT22;11564;50.920;11.612;2023-05-07T06:23:41;11.40;99.90
22795;DHT22;11564;50.920;11.612;2023-05-07T06:26:07;11.50;99.90
22795;DHT22;11564;50.920;11.612;2023-05-07T06:28:33;11.50;99.90
22795;DHT22;11564;50.920;11.612;2023-05-07T06:31:14;11.50;99.90
22795;DHT22;11564;50.920;11.612;2023-05-07T06:33:40;11.70;99.90
22795;DHT22;11564;50.920;11.612;2023-05-07T06:36:06;11.70;99.90
22795;DHT22;11564;50.920;11.612;2023-05-07T06:38:32;11.80;99.90
22795;DHT22;11564;50.920;11.612;2023-05-07T06:40:57;11.80;99.90
22795;DHT22;11564;50.920;11.612;2023-05-07T06:43:23;11.80;99.90
22795;DHT22;11564;50.920;11.612;2023-05-07T06:45:48;11.80;99.90
22795;DHT22;11564;50.920;11.612;2023-05-07T06:48:14;11.90;99.90
22795;DHT22;11564;50.920;11.612;2023-05-07T06:50:41;11.80;99.90
22795;DHT22;11564;50.920;11.612;2023-05-07T06:53:06;11.90;99.90
22795;DHT22;11564;50.920;11.612;2023-05-07T06:55:32;11.80;99.90
22795;DHT22;11564;50.920;11.612;2023-05-07T06:57:58;11.80;99.90
22795;DHT22;11564;50.920;11.612;2023-05-07T07:00:26;11.70;99.90
22795;DHT22;11564;50.920;11.612;2023-05-07T07:02:53;11.80;99.90
22795;DHT22;11564;50.920;11.612;2023-05-07T07:05:18;11.90;99.90
22795;DHT22;11564;50.920;11.612;2023-05-07T07:07:44;11.90;99.90
22795;DHT22;11564;50.920;11.612;2023-05-07T07:10:10;11.90;99.90
22795;DHT22;11564;50.920;11.612;2023-05-07T07:12:35;11.90;99.90
22795;DHT22;11564;50.920;11.612;2023-05-07T07:15:01;11.80;99.90
22795;DHT22;11564;50.920;11.612;2023-05-07T07:17:27;11.80;99.90
22795;DHT22;11564;50.920;11.612;2023-05-07T07:19:53;11.90;99.90
22795;DHT22;11564;50.920;11.612;2023-05-07T07:22:19;12.00;99.90
22795;DHT22;11564;50.920;11.612;2023-05-07T07:24:45;12.10;99.90
22795;DHT22;11564;50.920;11.612;2023-05-07T07:27:10;12.00;99.90
22795;DHT22;11564;50.920;11.612;2023-05-07T07:29:36;12.10;99.90
22795;DHT22;11564;50.920;11.612;2023-05-07T07:32:02;12.10;99.90
22795;DHT22;11564;50.920;11.612;2023-05-07T07:34:27;12.10;99.90
22795;DHT22;11564;50.920;11.612;2023-05-07T07:36:53;12.00;99.90
22795;DHT22;11564;50.920;11.612;2023-05-07T07:39:18;12.00;99.90
22795;DHT22;11564;50.920;11.612;2023-05-07T07:41:44;12.10;99.90
22795;DHT22;11564;50.920;11.612;2023-05-07T07:44:10;12.10;99.90
22795;DHT22;11564;50.920;11.612;2023-05-07T07:46:38;12.10;99.90
22795;DHT22;11564;50.920;11.612;2023-05-07T07:49:03;12.10;99.90
22795;DHT22;11564;50.920;11.612;2023-05-07T07:51:29;12.10;99.90
22795;DHT22;11564;50.920;11.612;2023-05-07T07:53:55;12.20;99.90
22795;DHT22;11564;50.920;11.612;2023-05-07T07:56:23;12.10;99.90
22795;DHT22;11564;50.920;11.612;2023-05-07T07:58:48;12.10;99.90
22795;DHT22;11564;50.920;11.612;2023-05-07T08:01:14;12.10;99.90
22795;DHT22;11564;50.920;11.612;2023-05-07T08:03:40;12.10;99.90
22795;DHT22;11564;50.920;11.612;2023-05-07T08:06:06;12.10;99.90
22795;DHT22;11564;50.920;11.612;2023-05-07T08:08:31;12.20;99.90
22795;DHT22;11564;50.920;11.612;2023-05-07T08:10:57;12.30;99.90
22795;DHT22;11564;50.920;11.612;2023-05-07T08:13:22;12.40;99.90
22795;DHT22;11564;50.920;11.612;2023-05-07T08:15:48;12.40;99.90
22795;DHT22;11564;50.920;11.612;2023-05-07T08:18:14;12.50;99.90
22795;DHT22;11564;50.920;11.612;2023-05-07T08:20:40;12.60;99.90
22795;DHT22;11564;50.920;11.612;2023-05-07T08:23:07;12.50;99.90
22795;DHT22;11564;50.920;11.612;2023-05-07T08:25:34;12.70;99.90
22795;DHT22;11564;50.920;11.612;2023-05-07T08:28:00;12.70;99.90
22795;DHT22;11564;50.920;11.612;2023-05-07T08:30:26;12.80;99.90
22795;DHT22;11564;50.920;11.612;2023-05-07T08:32:52;13.00;99.90
22795;DHT22;11564;50.920;11.612;2023-05-07T08:35:17;13.30;99.90
22795;DHT22;11564;50.920;11.612;2023-05-07T08:37:43;13.30;99.90
22795;DHT22;11564;50.920;11.612;2023-05-07T08:40:09;13.50;99.90
22795;DHT22;11564;50.920;11.612;2023-05-07T08:42:36;13.80;99.90
22795;DHT22;11564;50.920;11.612;2023-05-07T08:45:09;13.80;99.90
22795;DHT22;11564;50.920;11.612;2023-05-07T08:47:42;13.80;99.90
22795;DHT22;11564;50.920;11.612;2023-05-07T08:50:09;13.90;99.90
22795;DHT22;11564;50.920;11.612;2023-05-07T08:52:35;13.80;99.90
22795;DHT22;11564;50.920;11.612;2023-05-07T08:55:02;13.90;99.90
22795;DHT22;11564;50.920;11.612;2023-05-07T08:57:28;13.80;99.90
22795;DHT22;11564;50.920;11.612;2023-05-07T08:59:54;13.70;99.90
22795;DHT22;11564;50.920;11.612;2023-05-07T09:02:19;13.70;99.90
22795;DHT22;11564;50.920;11.612;2023-05-07T09:04:46;13.80;99.90
22795;DHT22;11564;50.920;11.612;2023-05-07T09:07:11;13.90;99.90
22795;DHT22;11564;50.920;11.612;2023-05-07T09:09:37;14.10;99.90
22795;DHT22;11564;50.920;11.612;2023-05-07T09:12:03;14.30;99.90
22795;DHT22;11564;50.920;11.612;2023-05-07T09:14:29;14.50;99.90
22795;DHT22;11564;50.920;11.612;2023-05-07T09:16:56;14.60;99.90
22795;DHT22;11564;50.920;11.612;2023-05-07T09:19:26;14.50;99.90
22795;DHT22;11564;50.920;11.612;2023-05-07T09:22:02;14.60;99.90
22795;DHT22;11564;50.920;11.612;2023-05-07T09:24:28;14.80;99.90
22795;DHT22;11564;50.920;11.612;2023-05-07T09:26:59;14.70;99.90
22795;DHT22;11564;50.920;11.612;2023-05-07T09:29:25;14.80;99.90
22795;DHT22;11564;50.920;11.612;2023-05-07T09:31:51;14.60;99.90
22795;DHT22;11564;50.920;11.612;2023-05-07T09:34:17;15.00;99.90
22795;DHT22;11564;50.920;11.612;2023-05-07T09:36:42;15.10;99.90
22795;DHT22;11564;50.920;11.612;2023-05-07T09:39:08;15.30;99.90
22795;DHT22;11564;50.920;11.612;2023-05-07T09:41:43;15.20;99.90
22795;DHT22;11564;50.920;11.612;2023-05-07T09:44:09;15.30;99.90
22795;DHT22;11564;50.920;11.612;2023-05-07T09:46:36;14.90;99.90
22795;DHT22;11564;50.920;11.612;2023-05-07T09:49:07;14.70;99.90
22795;DHT22;11564;50.920;11.612;2023-05-07T09:51:51;14.80;99.90
22795;DHT22;11564;50.920;11.612;2023-05-07T09:54:17;14.70;99.90
22795;DHT22;11564;50.920;11.612;2023-05-07T09:56:48;14.80;99.90
22795;DHT22;11564;50.920;11.612;2023-05-07T09:59:15;14.90;99.90
22795;DHT22;11564;50.920;11.612;2023-05-07T10:01:42;15.10;99.90
22795;DHT22;11564;50.920;11.612;2023-05-07T10:04:08;15.30;99.90
22795;DHT22;11564;50.920;11.612;2023-05-07T10:06:35;15.40;99.90
22795;DHT22;11564;50.920;11.612;2023-05-07T10:09:02;15.50;99.90
22795;DHT22;11564;50.920;11.612;2023-05-07T10:11:28;15.30;99.90
22795;DHT22;11564;50.920;11.612;2023-05-07T10:13:54;15.00;99.90
22795;DHT22;11564;50.920;11.612;2023-05-07T10:16:21;15.10;99.90
22795;DHT22;11564;50.920;11.612;2023-05-07T10:18:47;15.00;99.90
22795;DHT22;11564;50.920;11.612;2023-05-07T10:21:18;15.10;99.90
22795;DHT22;11564;50.920;11.612;2023-05-07T10:24:04;15.20;99.90
22795;DHT22;11564;50.920;11.612;2023-05-07T10:26:35;15.10;99.90
22795;DHT22;11564;50.920;11.612;2023-05-07T10:31:55;15.30;99.90
22795;DHT22;11564;50.920;11.612;2023-05-07T10:34:33;14.90;99.90
22795;DHT22;11564;50.920;11.612;2023-05-07T10:37:00;14.70;99.90
22795;DHT22;11564;50.920;11.612;2023-05-07T10:39:26;14.60;99.90
22795;DHT22;11564;50.920;11.612;2023-05-07T10:41:52;14.90;99.90
22795;DHT22;11564;50.920;11.612;2023-05-07T10:44:28;14.80;99.90
22795;DHT22;11564;50.920;11.612;2023-05-07T10:47:17;14.80;99.90
22795;DHT22;11564;50.920;11.612;2023-05-07T10:52:17;14.80;99.90
22795;DHT22;11564;50.920;11.612;2023-05-07T10:54:44;14.60;99.90
22795;DHT22;11564;50.920;11.612;2023-05-07T10:57:32;14.70;99.90
22795;DHT22;11564;50.920;11.612;2023-05-07T10:59:58;15.00;99.90
22795;DHT22;11564;50.920;11.612;2023-05-07T11:05:26;15.00;99.90
22795;DHT22;11564;50.920;11.612;2023-05-07T11:08:02;14.70;99.90
22795;DHT22;11564;50.920;11.612;2023-05-07T11:10:56;14.50;99.90
22795;DHT22;11564;50.920;11.612;2023-05-07T11:13:46;14.40;99.90
22795;DHT22;11564;50.920;11.612;2023-05-07T11:16:23;14.60;99.90
22795;DHT22;11564;50.920;11.612;2023-05-07T11:18:56;14.80;99.90
22795;DHT22;11564;50.920;11.612;2023-05-07T11:21:41;14.90;99.90
22795;DHT22;11564;50.920;11.612;2023-05-07T11:24:08;14.90;99.90
22795;DHT22;11564;50.920;11.612;2023-05-07T11:26:45;15.10;99.90
22795;DHT22;11564;50.920;11.612;2023-05-07T11:29:19;15.20;99.90
22795;DHT22;11564;50.920;11.612;2023-05-07T11:31:53;15.70;99.90
22795;DHT22;11564;50.920;11.612;2023-05-07T11:34:24;15.90;99.90
22795;DHT22;11564;50.920;11.612;2023-05-07T11:36:50;16.10;99.90
22795;DHT22;11564;50.920;11.612;2023-05-07T11:39:30;15.90;99.90
22795;DHT22;11564;50.920;11.612;2023-05-07T11:41:58;15.80;99.90
22795;DHT22;11564;50.920;11.612;2023-05-07T11:44:24;15.80;99.90
22795;DHT22;11564;50.920;11.612;2023-05-07T11:46:50;15.90;99.90
22795;DHT22;11564;50.920;11.612;2023-05-07T11:49:15;16.10;99.90
22795;DHT22;11564;50.920;11.612;2023-05-07T11:51:41;16.30;99.90
22795;DHT22;11564;50.920;11.612;2023-05-07T11:54:08;16.90;99.90
22795;DHT22;11564;50.920;11.612;2023-05-07T11:56:37;17.20;99.90
22795;DHT22;11564;50.920;11.612;2023-05-07T11:59:02;17.10;99.90
22795;DHT22;11564;50.920;11.612;2023-05-07T12:01:28;17.40;99.90
22795;DHT22;11564;50.920;11.612;2023-05-07T12:03:54;17.60;99.90
22795;DHT22;11564;50.920;11.612;2023-05-07T12:06:19;17.60;99.90
22795;DHT22;11564;50.920;11.612;2023-05-07T12:08:46;18.20;99.50
22795;DHT22;11564;50.920;11.612;2023-05-07T12:11:29;18.10;99.00
22795;DHT22;11564;50.920;11.612;2023-05-07T12:13:55;18.70;98.40
22795;DHT22;11564;50.920;11.612;2023-05-07T12:16:21;19.00;98.60
22795;DHT22;11564;50.920;11.612;2023-05-07T12:18:48;19.40;97.30
22795;DHT22;11564;50.920;11.612;2023-05-07T12:21:14;19.70;96.40
22795;DHT22;11564;50.920;11.612;2023-05-07T12:23:40;19.80;95.80
22795;DHT22;11564;50.920;11.612;2023-05-07T12:26:06;19.70;95.80
22795;DHT22;11564;50.920;11.612;2023-05-07T12:28:36;19.80;95.30
22795;DHT22;11564;50.920;11.612;2023-05-07T12:31:03;20.00;95.10
22795;DHT22;11564;50.920;11.612;2023-05-07T12:33:29;19.20;94.90
22795;DHT22;11564;50.920;11.612;2023-05-07T12:35:57;18.70;95.60
22795;DHT22;11564;50.920;11.612;2023-05-07T12:38:22;19.20;94.80
22795;DHT22;11564;50.920;11.612;2023-05-07T12:40:50;19.70;94.50
22795;DHT22;11564;50.920;11.612;2023-05-07T12:43:27;20.40;93.90
22795;DHT22;11564;50.920;11.612;2023-05-07T12:46:05;19.90;93.50
22795;DHT22;11564;50.920;11.612;2023-05-07T12:48:31;20.10;93.20
22795;DHT22;11564;50.920;11.612;2023-05-07T12:50:58;19.60;93.40
22795;DHT22;11564;50.920;11.612;2023-05-07T12:53:25;19.90;93.80
22795;DHT22;11564;50.920;11.612;2023-05-07T12:55:56;20.70;92.40
22795;DHT22;11564;50.920;11.612;2023-05-07T12:58:33;21.00;91.80
22795;DHT22;11564;50.920;11.612;2023-05-07T13:01:01;20.50;92.30
22795;DHT22;11564;50.920;11.612;2023-05-07T13:03:29;21.00;91.50
22795;DHT22;11564;50.920;11.612;2023-05-07T13:05:58;21.80;90.30
22795;DHT22;11564;50.920;11.612;2023-05-07T13:11:02;21.30;90.30
22795;DHT22;11564;50.920;11.612;2023-05-07T13:13:32;21.20;89.70
22795;DHT22;11564;50.920;11.612;2023-05-07T13:15:57;23.10;89.40
22795;DHT22;11564;50.920;11.612;2023-05-07T13:18:25;24.40;84.40
22795;DHT22;11564;50.920;11.612;2023-05-07T13:20:51;25.50;83.90
22795;DHT22;11564;50.920;11.612;2023-05-07T13:23:17;26.60;77.50
22795;DHT22;11564;50.920;11.612;2023-05-07T13:25:43;28.00;73.90
22795;DHT22;11564;50.920;11.612;2023-05-07T13:28:08;28.10;70.70
22795;DHT22;11564;50.920;11.612;2023-05-07T13:30:34;27.00;70.60
22795;DHT22;11564;50.920;11.612;2023-05-07T13:33:00;25.80;71.70
22795;DHT22;11564;50.920;11.612;2023-05-07T13:35:26;26.20;72.10
22795;DHT22;11564;50.920;11.612;2023-05-07T13:37:52;27.00;72.50
22795;DHT22;11564;50.920;11.612;2023-05-07T13:40:18;28.60;67.90
22795;DHT22;11564;50.920;11.612;2023-05-07T13:42:44;28.20;64.40
22795;DHT22;11564;50.920;11.612;2023-05-07T13:45:10;29.80;62.80
22795;DHT22;11564;50.920;11.612;2023-05-07T13:47:42;29.40;62.10
22795;DHT22;11564;50.920;11.612;2023-05-07T13:50:09;30.40;62.40
22795;DHT22;11564;50.920;11.612;2023-05-07T13:52:35;29.80;61.60
22795;DHT22;11564;50.920;11.612;2023-05-07T13:55:00;29.40;61.70
22795;DHT22;11564;50.920;11.612;2023-05-07T13:57:26;27.70;63.10
22795;DHT22;11564;50.920;11.612;2023-05-07T13:59:52;27.70;63.20
22795;DHT22;11564;50.920;11.612;2023-05-07T14:02:17;28.20;62.70
22795;DHT22;11564;50.920;11.612;2023-05-07T14:04:43;28.10;61.90
22795;DHT22;11564;50.920;11.612;2023-05-07T14:07:08;29.90;60.20
22795;DHT22;11564;50.920;11.612;2023-05-07T14:09:34;30.10;59.30
22795;DHT22;11564;50.920;11.612;2023-05-07T14:11:59;29.70;58.30
22795;DHT22;11564;50.920;11.612;2023-05-07T14:14:26;31.10;58.50
22795;DHT22;11564;50.920;11.612;2023-05-07T14:16:52;32.10;56.60
22795;DHT22;11564;50.920;11.612;2023-05-07T14:19:18;33.00;54.30
22795;DHT22;11564;50.920;11.612;2023-05-07T14:21:43;34.20;53.00
22795;DHT22;11564;50.920;11.612;2023-05-07T14:24:09;35.40;53.00
22795;DHT22;11564;50.920;11.612;2023-05-07T14:26:35;34.80;51.90
22795;DHT22;11564;50.920;11.612;2023-05-07T14:29:00;36.70;49.20
22795;DHT22;11564;50.920;11.612;2023-05-07T14:31:26;36.60;48.20
22795;DHT22;11564;50.920;11.612;2023-05-07T14:33:52;33.60;49.20
22795;DHT22;11564;50.920;11.612;2023-05-07T14:36:18;30.80;52.80
22795;DHT22;11564;50.920;11.612;2023-05-07T14:38:48;30.60;53.80
22795;DHT22;11564;50.920;11.612;2023-05-07T14:41:14;29.10;53.70
22795;DHT22;11564;50.920;11.612;2023-05-07T14:43:40;28.40;56.90
22795;DHT22;11564;50.920;11.612;2023-05-07T14:46:05;28.70;56.80
22795;DHT22;11564;50.920;11.612;2023-05-07T14:48:31;30.90;54.60
22795;DHT22;11564;50.920;11.612;2023-05-07T14:50:57;31.20;53.80
22795;DHT22;11564;50.920;11.612;2023-05-07T14:53:23;31.40;52.10
22795;DHT22;11564;50.920;11.612;2023-05-07T14:55:49;31.00;53.50
22795;DHT22;11564;50.920;11.612;2023-05-07T14:58:14;30.50;54.00
22795;DHT22;11564;50.920;11.612;2023-05-07T15:00:40;30.10;55.10
22795;DHT22;11564;50.920;11.612;2023-05-07T15:03:07;29.10;55.80
22795;DHT22;11564;50.920;11.612;2023-05-07T15:05:33;28.60;55.80
22795;DHT22;11564;50.920;11.612;2023-05-07T15:07:59;27.90;57.30
22795;DHT22;11564;50.920;11.612;2023-05-07T15:10:25;26.70;59.50
22795;DHT22;11564;50.920;11.612;2023-05-07T15:12:51;26.60;59.30
22795;DHT22;11564;50.920;11.612;2023-05-07T15:15:16;25.30;60.00
22795;DHT22;11564;50.920;11.612;2023-05-07T15:17:42;24.40;62.50
22795;DHT22;11564;50.920;11.612;2023-05-07T15:20:08;24.00;63.70
22795;DHT22;11564;50.920;11.612;2023-05-07T15:22:34;22.90;65.50
22795;DHT22;11564;50.920;11.612;2023-05-07T15:25:01;23.30;65.50